createdAt,value
2022-09-28T00:00:43.891Z,29.05
2022-09-28T00:03:11.373Z,29.26
2022-09-28T00:05:38.771Z,28.55
2022-09-28T00:08:06.621Z,26.89
2022-09-28T00:10:35.445Z,27.13
2022-09-28T00:13:03.563Z,27.83
2022-09-28T00:15:30.994Z,26.80
2022-09-28T00:17:58.363Z,29.18
2022-09-28T00:20:25.709Z,28.62
2022-09-28T00:22:53.097Z,29.57
2022-09-28T00:25:20.475Z,28.62
2022-09-28T00:27:51.595Z,28.70
2022-09-28T00:30:18.979Z,28.35
2022-09-28T00:32:46.330Z,29.29
2022-09-28T00:35:13.971Z,28.44
2022-09-28T00:37:41.303Z,28.49
2022-09-28T00:40:09.484Z,28.20
2022-09-28T00:42:36.875Z,28.31
2022-09-28T00:45:07.040Z,28.54
2022-09-28T00:47:43.162Z,28.54
2022-09-28T00:50:20.673Z,28.32
2022-09-28T00:52:53.474Z,27.42
2022-09-28T00:55:27.402Z,28.44
2022-09-28T00:57:58.537Z,27.92
2022-09-28T01:00:27.964Z,26.99
2022-09-28T01:02:55.836Z,26.82
2022-09-28T01:05:23.814Z,26.33
2022-09-28T01:07:51.386Z,27.02
2022-09-28T01:10:18.860Z,26.59
2022-09-28T01:12:46.205Z,26.38
2022-09-28T01:15:14.549Z,26.59
2022-09-28T01:17:58.657Z,27.17
2022-09-28T01:20:49.593Z,27.55
2022-09-28T01:23:46.654Z,27.58
2022-09-28T01:26:48.083Z,26.58
2022-09-28T01:29:23.721Z,26.74
2022-09-28T01:32:01.378Z,27.16
2022-09-28T01:34:37.377Z,27.23
2022-09-28T01:37:09.902Z,28.34
2022-09-28T01:39:42.582Z,28.65
2022-09-28T01:42:17.204Z,27.60
2022-09-28T01:44:49.700Z,28.45
2022-09-28T01:47:20.981Z,29.27
2022-09-28T01:49:53.270Z,29.00
2022-09-28T01:52:26.662Z,29.33
2022-09-28T01:54:59.230Z,27.81
2022-09-28T01:57:34.972Z,29.06
2022-09-28T02:00:07.269Z,28.43
2022-09-28T02:02:49.438Z,29.77
2022-09-28T02:05:24.834Z,28.83
2022-09-28T02:07:56.857Z,27.95
2022-09-28T02:10:28.263Z,27.14
2022-09-28T02:13:01.997Z,27.35
2022-09-28T02:15:36.128Z,27.46
2022-09-28T02:18:04.517Z,27.01
2022-09-28T02:20:33.406Z,26.84
2022-09-28T02:23:04.751Z,26.90
2022-09-28T02:25:35.434Z,26.36
2022-09-28T02:28:05.773Z,27.18
2022-09-28T02:30:36.251Z,26.26
2022-09-28T02:33:09.558Z,27.04
2022-09-28T02:35:38.750Z,27.07
2022-09-28T02:38:06.113Z,26.85
2022-09-28T02:40:35.189Z,27.60
2022-09-28T02:43:13.426Z,26.84
2022-09-28T02:45:59.862Z,27.04
2022-09-28T02:49:10.488Z,26.24
2022-09-28T02:51:46.052Z,27.44
2022-09-28T02:54:32.831Z,26.72
2022-09-28T02:57:13.211Z,26.37
2022-09-28T02:59:49.102Z,26.97
2022-09-28T03:02:26.385Z,26.14
2022-09-28T03:05:14.415Z,26.39
2022-09-28T03:07:47.395Z,26.18
2022-09-28T03:10:20.926Z,25.09
2022-09-28T03:12:49.455Z,24.99
2022-09-28T03:15:23.633Z,24.92
2022-09-28T03:17:51.711Z,24.93
2022-09-28T03:20:19.475Z,25.00
2022-09-28T03:23:00.513Z,26.42
2022-09-28T03:25:34.467Z,27.86
2022-09-28T03:28:02.956Z,28.09
2022-09-28T03:30:35.262Z,27.67
2022-09-28T03:33:02.731Z,27.84
2022-09-28T03:35:32.497Z,27.67
2022-09-28T03:37:59.931Z,27.83
2022-09-28T03:40:29.362Z,27.91
2022-09-28T03:42:57.144Z,27.51
2022-09-28T03:45:25.139Z,27.66
2022-09-28T03:47:54.319Z,27.47
2022-09-28T03:50:21.778Z,26.71
2022-09-28T03:52:49.258Z,26.85
2022-09-28T03:55:16.886Z,27.29
2022-09-28T03:57:44.264Z,28.58
2022-09-28T04:00:12.942Z,28.26
2022-09-28T04:02:43.749Z,28.11
2022-09-28T04:05:12.819Z,28.27
2022-09-28T04:07:40.154Z,28.27
2022-09-28T04:10:08.759Z,27.95
2022-09-28T04:12:36.142Z,29.10
2022-09-28T04:15:05.549Z,28.96
2022-09-28T04:17:36.495Z,28.59
2022-09-28T04:20:09.714Z,26.69
2022-09-28T04:22:46.990Z,28.57
2022-09-28T04:25:14.516Z,28.62
2022-09-28T04:27:41.875Z,28.71
2022-09-28T04:30:10.992Z,28.76
2022-09-28T04:32:39.344Z,27.99
2022-09-28T04:35:09.153Z,28.31
2022-09-28T04:37:36.131Z,28.62
2022-09-28T04:40:06.031Z,28.30
2022-09-28T04:42:34.346Z,27.80
2022-09-28T04:45:01.683Z,27.42
2022-09-28T04:47:29.967Z,26.63
2022-09-28T04:50:23.573Z,26.08
2022-09-28T04:53:09.379Z,26.06
2022-09-28T04:55:38.887Z,27.08
2022-09-28T04:58:06.308Z,27.58
2022-09-28T05:00:33.717Z,28.72
2022-09-28T05:03:21.864Z,29.00
2022-09-28T05:06:14.254Z,28.67
2022-09-28T05:08:44.227Z,28.55
2022-09-28T05:11:14.298Z,28.05
2022-09-28T05:13:43.174Z,27.80
2022-09-28T05:16:11.165Z,27.00
2022-09-28T05:18:58.495Z,27.17
2022-09-28T05:21:26.346Z,27.09
2022-09-28T05:23:53.984Z,27.18
2022-09-28T05:26:22.940Z,28.23
2022-09-28T05:28:50.330Z,29.78
2022-09-28T05:31:23.611Z,30.09
2022-09-28T05:34:20.897Z,29.42
2022-09-28T05:36:48.527Z,28.74
2022-09-28T05:39:17.350Z,29.10
2022-09-28T05:41:47.050Z,28.01
2022-09-28T05:44:14.577Z,29.19
2022-09-28T05:46:42.080Z,33.81
2022-09-28T05:49:10.783Z,30.36
2022-09-28T05:51:38.189Z,31.70
2022-09-28T05:54:06.530Z,30.78
2022-09-28T05:56:38.246Z,28.42
2022-09-28T05:59:08.944Z,27.69
2022-09-28T06:01:37.406Z,25.88
2022-09-28T06:04:08.326Z,26.21
2022-09-28T06:06:36.226Z,26.46
2022-09-28T06:09:03.872Z,27.73
2022-09-28T06:11:58.721Z,30.96
2022-09-28T06:14:53.596Z,28.22
2022-09-28T06:17:22.302Z,29.54
2022-09-28T06:19:58.931Z,30.11
2022-09-28T06:22:31.323Z,29.52
2022-09-28T06:25:04.747Z,29.88
2022-09-28T06:27:32.357Z,27.57
2022-09-28T06:30:01.339Z,26.60
2022-09-28T06:32:30.072Z,25.48
2022-09-28T06:34:57.918Z,25.29
2022-09-28T06:37:27.217Z,25.75
2022-09-28T06:39:55.501Z,24.54
2022-09-28T06:42:23.179Z,25.84
2022-09-28T06:45:11.381Z,26.63
2022-09-28T06:48:04.811Z,26.88
2022-09-28T06:50:41.015Z,26.01
2022-09-28T06:53:34.319Z,27.03
2022-09-28T06:56:32.880Z,27.18
2022-09-28T06:59:00.747Z,25.46
2022-09-28T07:01:30.646Z,26.03
2022-09-28T07:04:06.094Z,26.50
2022-09-28T07:06:51.945Z,25.77
2022-09-28T07:09:50.341Z,25.88
2022-09-28T07:12:35.704Z,26.17
2022-09-28T07:15:21.975Z,25.88
2022-09-28T07:18:02.064Z,26.30
2022-09-28T07:20:33.376Z,26.40
2022-09-28T07:23:17.360Z,26.45
2022-09-28T07:26:24.949Z,27.14
2022-09-28T07:29:05.854Z,26.90
2022-09-28T07:31:59.435Z,26.86
2022-09-28T07:34:28.308Z,28.25
2022-09-28T07:37:04.947Z,28.62
2022-09-28T07:39:32.335Z,28.40
2022-09-28T07:42:02.905Z,28.38
2022-09-28T07:44:31.821Z,26.83
2022-09-28T07:47:00.705Z,26.24
2022-09-28T07:49:41.575Z,26.27
2022-09-28T07:52:15.279Z,26.11
2022-09-28T07:55:07.385Z,26.15
2022-09-28T07:57:56.833Z,27.47
2022-09-28T08:00:44.509Z,26.09
2022-09-28T08:03:11.857Z,26.21
2022-09-28T08:05:40.758Z,26.46
2022-09-28T08:08:08.434Z,26.98
2022-09-28T08:10:36.038Z,26.12
2022-09-28T08:13:22.247Z,26.62
2022-09-28T08:16:13.931Z,26.95
2022-09-28T08:18:51.094Z,28.34
2022-09-28T08:21:21.623Z,27.83
2022-09-28T08:23:49.366Z,27.36
2022-09-28T08:26:16.893Z,27.33
2022-09-28T08:28:45.611Z,27.02
2022-09-28T08:31:31.414Z,26.96
2022-09-28T08:34:22.219Z,27.02
2022-09-28T08:37:09.562Z,27.06
2022-09-28T08:39:55.432Z,27.93
2022-09-28T08:42:51.583Z,26.96
2022-09-28T08:45:30.971Z,26.67
2022-09-28T08:48:04.568Z,26.37
2022-09-28T08:50:46.141Z,26.03
2022-09-28T08:53:41.213Z,25.83
2022-09-28T08:56:18.941Z,25.86
2022-09-28T08:58:54.822Z,25.56
2022-09-28T09:01:26.855Z,25.45
2022-09-28T09:03:56.155Z,26.65
2022-09-28T09:07:07.064Z,26.71
2022-09-28T09:09:55.846Z,26.25
2022-09-28T09:12:32.247Z,25.58
2022-09-28T09:15:24.445Z,25.43
2022-09-28T09:18:07.847Z,25.35
2022-09-28T09:20:57.526Z,25.51
2022-09-28T09:23:37.931Z,24.93
2022-09-28T09:26:17.267Z,27.76
2022-09-28T09:29:17.391Z,29.02
2022-09-28T09:32:07.353Z,27.14
2022-09-28T09:34:57.629Z,26.80
2022-09-28T09:38:20.753Z,26.36
2022-09-28T09:41:20.837Z,27.39
2022-09-28T09:44:23.272Z,26.07
2022-09-28T09:46:55.216Z,28.86
2022-09-28T09:49:50.328Z,27.66
2022-09-28T09:52:23.366Z,26.03
2022-09-28T09:54:55.959Z,28.05
2022-09-28T09:57:51.096Z,27.23
2022-09-28T10:00:54.362Z,26.83
2022-09-28T10:03:44.558Z,25.49
2022-09-28T10:06:20.374Z,25.16
2022-09-28T10:08:52.565Z,24.95
2022-09-28T10:11:28.378Z,24.68
2022-09-28T10:13:58.038Z,24.69
2022-09-28T10:16:41.681Z,25.36
2022-09-28T10:19:16.782Z,25.09
2022-09-28T10:22:05.676Z,25.03
2022-09-28T10:24:38.715Z,24.75
2022-09-28T10:27:11.530Z,24.04
2022-09-28T10:29:52.337Z,24.73
2022-09-28T10:32:22.718Z,24.27
2022-09-28T10:34:53.559Z,24.52
2022-09-28T10:37:24.183Z,25.65
2022-09-28T10:43:25.556Z,26.00
2022-09-28T10:46:05.300Z,25.75
2022-09-28T10:48:49.832Z,26.67
2022-09-28T10:51:17.823Z,26.51
2022-09-28T10:53:59.868Z,25.68
2022-09-28T10:56:47.383Z,25.55
2022-09-28T10:59:37.261Z,25.58
2022-09-28T11:02:29.491Z,26.77
2022-09-28T11:05:06.641Z,26.33
2022-09-28T11:07:46.258Z,25.73
2022-09-28T11:10:21.613Z,25.47
2022-09-28T11:12:50.360Z,25.41
2022-09-28T11:15:21.421Z,25.57
2022-09-28T11:17:52.416Z,25.24
2022-09-28T11:20:32.755Z,26.72
2022-09-28T11:23:18.603Z,25.78
2022-09-28T11:25:57.669Z,25.36
2022-09-28T11:28:30.767Z,25.28
2022-09-28T11:30:59.716Z,24.75
2022-09-28T11:33:35.714Z,25.11
2022-09-28T11:36:32.708Z,26.22
2022-09-28T11:39:08.474Z,26.01
2022-09-28T11:41:59.776Z,26.63
2022-09-28T11:44:39.142Z,25.54
2022-09-28T11:47:33.212Z,25.54
2022-09-28T11:50:08.066Z,25.31
2022-09-28T11:52:43.962Z,25.48
2022-09-28T11:55:17.332Z,25.92
2022-09-28T11:57:48.911Z,25.47
2022-09-28T12:00:20.724Z,26.43
2022-09-28T12:02:55.990Z,24.97
2022-09-28T12:05:30.815Z,24.82
2022-09-28T12:08:01.998Z,24.82
2022-09-28T12:10:54.640Z,24.87
2022-09-28T12:13:41.843Z,24.89
2022-09-28T12:16:38.752Z,24.81
2022-09-28T12:19:07.288Z,26.19
2022-09-28T12:21:40.666Z,26.05
2022-09-28T12:24:16.251Z,25.65
2022-09-28T12:26:48.821Z,25.24
2022-09-28T12:29:21.592Z,26.11
2022-09-28T12:31:59.848Z,25.18
2022-09-28T12:34:27.367Z,25.10
2022-09-28T12:37:09.170Z,25.40
2022-09-28T12:39:58.138Z,25.01
2022-09-28T12:42:44.616Z,24.97
2022-09-28T12:45:27.323Z,24.74
2022-09-28T12:48:14.619Z,24.83
2022-09-28T12:50:56.742Z,24.84
2022-09-28T12:53:42.606Z,24.87
2022-09-28T12:56:19.365Z,24.77
2022-09-28T12:58:59.919Z,26.09
2022-09-28T13:01:47.423Z,25.42
2022-09-28T13:04:53.040Z,24.89
2022-09-28T13:07:29.724Z,24.55
2022-09-28T13:10:10.646Z,24.76
2022-09-28T13:12:50.712Z,24.67
2022-09-28T13:15:40.188Z,24.56
2022-09-28T13:18:14.735Z,24.81
2022-09-28T13:20:56.914Z,24.44
2022-09-28T13:23:27.599Z,24.79
2022-09-28T13:26:01.715Z,24.62
2022-09-28T13:28:31.678Z,24.90
2022-09-28T13:31:01.070Z,24.57
2022-09-28T13:33:32.641Z,24.29
2022-09-28T13:36:00.488Z,24.24
2022-09-28T13:38:46.379Z,24.28
2022-09-28T13:41:22.632Z,24.51
2022-09-28T13:44:23.640Z,24.07
2022-09-28T13:47:15.358Z,24.47
2022-09-28T13:49:58.088Z,24.04
2022-09-28T13:52:37.202Z,25.07
2022-09-28T13:55:19.003Z,24.88
2022-09-28T13:57:53.126Z,24.73
2022-09-28T14:00:25.767Z,24.32
2022-09-28T14:02:56.921Z,24.40
2022-09-28T14:05:45.790Z,24.44
2022-09-28T14:08:44.257Z,26.57
2022-09-28T14:11:48.507Z,26.69
2022-09-28T14:14:45.876Z,26.09
2022-09-28T14:17:49.905Z,24.83
2022-09-28T14:20:19.880Z,24.43
2022-09-28T14:23:12.601Z,24.74
2022-09-28T14:25:44.427Z,24.92
2022-09-28T14:28:34.185Z,24.58
2022-09-28T14:31:07.179Z,24.52
2022-09-28T14:33:35.499Z,25.04
2022-09-28T14:36:06.772Z,24.71
2022-09-28T14:38:38.763Z,25.79
2022-09-28T14:41:09.257Z,25.38
2022-09-28T14:43:56.784Z,24.56
2022-09-28T14:46:37.307Z,24.71
2022-09-28T14:49:26.404Z,24.41
2022-09-28T14:52:02.994Z,24.40
2022-09-28T14:54:40.955Z,24.54
2022-09-28T14:57:17.665Z,24.57
2022-09-28T14:59:45.604Z,24.49
2022-09-28T15:02:23.038Z,24.50
2022-09-28T15:04:54.618Z,24.62
2022-09-28T15:07:24.246Z,24.44
2022-09-28T15:09:53.355Z,24.39
2022-09-28T15:12:24.308Z,24.79
2022-09-28T15:14:54.536Z,24.79
2022-09-28T15:17:27.004Z,24.53
2022-09-28T15:20:10.702Z,24.52
2022-09-28T15:22:45.611Z,24.44
2022-09-28T15:25:14.581Z,24.74
2022-09-28T15:27:41.915Z,24.32
2022-09-28T15:30:21.499Z,24.10
2022-09-28T15:32:50.507Z,24.36
2022-09-28T15:35:21.319Z,24.08
2022-09-28T15:37:49.831Z,24.22
2022-09-28T15:40:20.146Z,24.29
2022-09-28T15:42:47.747Z,24.48
2022-09-28T15:45:25.191Z,24.30
2022-09-28T15:47:57.366Z,24.38
2022-09-28T15:50:27.638Z,23.83
2022-09-28T15:52:57.905Z,23.83
2022-09-28T15:55:28.797Z,23.88
2022-09-28T15:58:07.901Z,23.97
2022-09-28T16:00:35.416Z,23.77
2022-09-28T16:03:21.292Z,23.89
2022-09-28T16:05:50.833Z,23.96
2022-09-28T16:08:20.084Z,23.81
2022-09-28T16:11:08.699Z,23.94
2022-09-28T16:13:37.793Z,23.57
2022-09-28T16:16:05.667Z,23.70
2022-09-28T16:18:39.109Z,23.88
2022-09-28T16:21:37.594Z,23.62
2022-09-28T16:24:05.832Z,23.54
2022-09-28T16:26:35.860Z,23.80
2022-09-28T16:29:08.941Z,23.83
2022-09-28T16:31:36.646Z,23.89
2022-09-28T16:34:18.819Z,23.80
2022-09-28T16:36:48.005Z,24.11
2022-09-28T16:39:16.949Z,23.86
2022-09-28T16:41:48.865Z,23.51
2022-09-28T16:44:23.385Z,23.86
2022-09-28T16:46:52.391Z,23.75
2022-09-28T16:49:23.032Z,23.95
2022-09-28T16:51:50.489Z,23.89
2022-09-28T16:54:19.643Z,23.85
2022-09-28T16:56:47.594Z,23.91
2022-09-28T16:59:15.219Z,23.90
2022-09-28T17:01:43.174Z,23.79
2022-09-28T17:04:10.637Z,23.92
2022-09-28T17:06:39.684Z,23.82
2022-09-28T17:09:09.005Z,23.65
2022-09-28T17:11:36.360Z,24.13
2022-09-28T17:14:04.027Z,23.88
2022-09-28T17:16:58.201Z,24.23
2022-09-28T17:19:22.145Z,23.89
2022-09-28T17:21:51.790Z,24.03
2022-09-28T17:24:19.576Z,23.66
2022-09-28T17:26:49.724Z,23.66
2022-09-28T17:29:17.289Z,23.85
2022-09-28T17:31:46.075Z,23.73
2022-09-28T17:34:15.072Z,23.35
2022-09-28T17:36:43.572Z,23.64
2022-09-28T17:39:14.243Z,23.57
2022-09-28T17:41:41.798Z,23.62
2022-09-28T17:44:09.495Z,23.58
2022-09-28T17:46:39.208Z,23.46
2022-09-28T17:49:10.300Z,23.58
2022-09-28T17:51:38.096Z,23.71
2022-09-28T17:54:07.011Z,23.48
2022-09-28T17:56:36.787Z,23.59
2022-09-28T17:59:04.703Z,24.55
2022-09-28T18:01:33.301Z,24.38
2022-09-28T18:04:01.301Z,23.99
2022-09-28T18:06:28.778Z,24.21
2022-09-28T18:08:56.247Z,24.08
2022-09-28T18:11:23.753Z,24.05
2022-09-28T18:13:52.575Z,23.90
2022-09-28T18:16:20.553Z,23.60
2022-09-28T18:18:48.436Z,23.95
2022-09-28T18:21:15.918Z,23.54
2022-09-28T18:23:43.343Z,23.61
2022-09-28T18:26:14.665Z,23.35
2022-09-28T18:28:42.442Z,23.39
2022-09-28T18:31:13.183Z,23.86
2022-09-28T18:33:41.039Z,23.21
2022-09-28T18:36:09.177Z,23.54
2022-09-28T18:38:37.036Z,23.37
2022-09-28T18:41:08.578Z,23.51
2022-09-28T18:43:36.577Z,23.29
2022-09-28T18:46:08.202Z,23.57
2022-09-28T18:48:37.386Z,23.54
2022-09-28T18:51:08.977Z,23.52
2022-09-28T18:53:37.191Z,23.56
2022-09-28T18:56:09.132Z,23.33
2022-09-28T18:58:37.255Z,23.44
2022-09-28T19:01:28.551Z,23.35
2022-09-28T19:03:59.246Z,23.45
2022-09-28T19:06:26.874Z,23.06
2022-09-28T19:08:55.381Z,23.62
2022-09-28T19:11:23.471Z,23.26
2022-09-28T19:13:51.134Z,23.34
2022-09-28T19:16:20.586Z,23.14
2022-09-28T19:18:48.695Z,23.50
2022-09-28T19:21:17.817Z,23.40
2022-09-28T19:23:49.349Z,23.11
2022-09-28T19:26:19.566Z,23.04
2022-09-28T19:28:47.583Z,23.24
2022-09-28T19:31:15.304Z,23.21
2022-09-28T19:33:42.748Z,23.17
2022-09-28T19:36:12.065Z,23.21
2022-09-28T19:38:41.528Z,23.39
2022-09-28T19:41:09.685Z,23.45
2022-09-28T19:43:37.172Z,23.10
2022-09-28T19:46:06.691Z,23.19
2022-09-28T19:48:35.048Z,23.32
2022-09-28T19:51:04.282Z,23.19
2022-09-28T19:53:33.207Z,23.04
2022-09-28T19:56:03.156Z,23.13
2022-09-28T19:58:33.051Z,22.84
2022-09-28T20:01:00.518Z,23.14
2022-09-28T20:03:28.255Z,22.95
2022-09-28T20:06:00.131Z,23.00
2022-09-28T20:08:28.065Z,23.72
2022-09-28T20:10:55.859Z,23.49
2022-09-28T20:13:30.569Z,23.58
2022-09-28T20:16:03.498Z,23.28
2022-09-28T20:18:33.624Z,23.24
2022-09-28T20:21:04.859Z,23.50
2022-09-28T20:23:32.672Z,22.92
2022-09-28T20:26:00.113Z,23.12
2022-09-28T20:28:28.943Z,23.07
2022-09-28T20:31:02.034Z,23.12
2022-09-28T20:33:29.538Z,23.06
2022-09-28T20:35:56.953Z,23.01
2022-09-28T20:38:24.397Z,22.68
2022-09-28T20:40:51.851Z,22.97
2022-09-28T20:43:19.293Z,22.71
2022-09-28T20:45:49.729Z,22.87
2022-09-28T20:48:17.382Z,22.96
2022-09-28T20:50:44.775Z,23.04
2022-09-28T20:53:12.117Z,22.63
2022-09-28T20:55:39.510Z,22.68
2022-09-28T20:58:06.848Z,23.16
2022-09-28T21:00:34.313Z,22.78
2022-09-28T21:03:03.225Z,22.81
2022-09-28T21:05:30.791Z,23.01
2022-09-28T21:07:58.807Z,22.79
2022-09-28T21:10:26.220Z,22.72
2022-09-28T21:12:53.614Z,22.58
2022-09-28T21:15:20.988Z,22.54
2022-09-28T21:17:48.358Z,22.75
2022-09-28T21:20:17.208Z,22.73
2022-09-28T21:22:44.684Z,22.63
2022-09-28T21:25:12.033Z,22.90
2022-09-28T21:27:39.374Z,22.70
2022-09-28T21:30:08.037Z,22.70
2022-09-28T21:32:35.381Z,23.26
2022-09-28T21:35:02.736Z,22.88
2022-09-28T21:37:31.556Z,23.32
2022-09-28T21:39:58.910Z,24.59
2022-09-28T21:42:26.246Z,24.07
2022-09-28T21:44:57.420Z,23.83
2022-09-28T21:47:26.735Z,23.77
2022-09-28T21:49:54.104Z,23.27
2022-09-28T21:52:21.451Z,23.78
2022-09-28T21:54:50.303Z,23.35
2022-09-28T21:57:17.733Z,23.49
2022-09-28T21:59:45.073Z,23.67
2022-09-28T22:02:12.431Z,23.73
2022-09-28T22:04:39.810Z,23.56
2022-09-28T22:07:07.182Z,23.29
2022-09-28T22:09:34.540Z,23.47
2022-09-28T22:12:03.488Z,23.58
2022-09-28T22:14:30.856Z,23.46
2022-09-28T22:16:58.243Z,23.41
2022-09-28T22:19:26.219Z,23.34
2022-09-28T22:21:53.560Z,23.54
2022-09-28T22:24:20.977Z,23.29
2022-09-28T22:26:48.453Z,23.50
2022-09-28T22:29:17.226Z,23.29
2022-09-28T22:31:45.095Z,23.64
2022-09-28T22:34:12.464Z,23.41
2022-09-28T22:36:39.816Z,23.56
2022-09-28T22:39:07.216Z,23.86
2022-09-28T22:41:34.644Z,24.47
2022-09-28T22:44:02.296Z,24.00
2022-09-28T22:46:31.180Z,23.74
2022-09-28T22:48:59.811Z,24.05
2022-09-28T22:51:28.785Z,23.63
2022-09-28T22:53:56.435Z,23.58
2022-09-28T22:56:24.234Z,23.66
2022-09-28T22:58:51.650Z,23.68
2022-09-28T23:01:20.623Z,23.91
2022-09-28T23:03:50.810Z,23.78
2022-09-28T23:06:21.439Z,24.09
2022-09-28T23:08:51.219Z,23.75
2022-09-28T23:11:18.585Z,23.64
2022-09-28T23:13:49.180Z,23.85
2022-09-28T23:16:16.767Z,23.47
2022-09-28T23:18:44.143Z,23.40
2022-09-28T23:21:14.931Z,23.46
2022-09-28T23:23:42.567Z,23.04
2022-09-28T23:26:13.780Z,22.95
2022-09-28T23:28:41.653Z,22.89
2022-09-28T23:31:10.564Z,22.91
2022-09-28T23:33:37.972Z,23.41
2022-09-28T23:36:06.030Z,22.89
2022-09-28T23:38:35.196Z,23.35
2022-09-28T23:41:02.630Z,23.48
2022-09-28T23:43:30.076Z,23.02
2022-09-28T23:45:57.512Z,23.27
2022-09-28T23:48:24.827Z,23.56
2022-09-28T23:50:52.177Z,23.69
2022-09-28T23:53:19.527Z,23.88
2022-09-28T23:55:48.298Z,23.80
2022-09-28T23:58:16.159Z,23.98
